Accueil
METAR-TAF:

METAR-TAF

Aéroports :

Aéroport de Valladolid

Valladolid, Espagne

latitude: 41-43N, longitude: 004-51W, altitude: 849 m

Observation

Le bulletin a été fait il y a 38 minutes, à 07:00 UTC
Vent 6 kt de est
Température 3°C
Humidité 93%
Pression 1022 hPa
Visibilité 10 km ou plus
pas de nuages en-dessous de 1500 mètres et pas de cumulonimbus.

METAR: LEVD 300700Z 08006KT CAVOK 03/02 Q1022

Heure: 08:38 (07:38 UTC)

Prévision

Le bulletin a été fait il y a 5 heures et 38 minutes, à 02:00 UTC
Prévision valable du 30 à 03 UTC au 01 à 03 UTC
Vent 6 kt de est/nord-est
Visibilité 10 km ou plus
pas de nuages en-dessous de 1500 mètres et pas de cumulonimbus.

TAF: LEVD 300200Z 3003/0103 07006KT CAVOK TX14/3015Z TN02/3007Z

Observations et prévisions météorologiques de plus de 4000 aéroports (messages METAR et TAF).

Les stations disponibles sont représentées par des disques jaunes et rouges sur la carte.

Passer la souris dessus pour voir le nom de la station.

Cliquer dessus pour voir les observations et prévisions météorologiques.

Pour changer de carte: cliquez sur les boutons verts avec une croix noire pour zoomer, sur le bouton vert avec un tiret pour effectuer un zoom arrière, ou sur les flèches vertes pour les cartes adjacentes.


METAR-TAF: